Time;durP1;ratioP1;P1;durP2;ratioP2;P2;SDS_P1;SDS_P2;PMS_P1;PMS_P2;Temp;Humidity;BMP_temperature;BMP_pressure;BME280_temperature;BME280_humidity;BME280_pressure;Samples;Min_cycle;Max_cycle;Signal;HPM_P1;HPM_P2
2021/05/16 00:02:13;;;;;;;2.00;1.90;;;9.70;99.90;;;10.47;70.53;96924.03;5219636;28;20232;-64
2021/05/16 00:04:45;;;;;;;1.70;1.60;;;9.70;99.90;;;10.50;70.73;96930.16;5225286;28;20646;-62
2021/05/16 00:07:18;;;;;;;1.93;1.83;;;9.80;99.90;;;10.51;71.47;96925.91;5224042;28;20284;-64
2021/05/16 00:09:51;;;;;;;2.87;1.97;;;9.70;99.90;;;10.52;70.83;96933.63;5213849;28;20549;-64
2021/05/16 00:12:24;;;;;;;1.73;1.63;;;9.80;99.90;;;10.74;72.43;96940.53;5219953;28;20307;-62
2021/05/16 00:14:56;;;;;;;2.40;1.90;;;9.90;99.90;;;10.72;71.05;96934.47;5225153;28;20235;-65
2021/05/16 00:17:29;;;;;;;2.07;1.87;;;9.90;99.90;;;10.66;71.48;96936.75;5226694;28;20289;-65
2021/05/16 00:20:08;;;;;;;3.03;1.80;;;9.90;99.90;;;10.68;72.23;96934.28;5228732;28;20299;-65
2021/05/16 00:22:41;;;;;;;1.80;1.70;;;9.90;99.90;;;10.71;71.58;96930.16;5226115;28;20307;-64
2021/05/16 00:25:18;;;;;;;2.20;1.60;;;10.00;99.90;;;10.73;71.35;96933.66;5227019;28;20293;-64
2021/05/16 00:27:52;;;;;;;3.33;1.83;;;10.00;99.90;;;10.81;70.31;96916.06;5219853;28;20205;-64
2021/05/16 00:30:27;;;;;;;3.00;2.07;;;10.00;99.90;;;10.77;69.78;96930.41;5207660;28;20240;-64
2021/05/16 00:33:01;;;;;;;2.63;2.00;;;10.00;99.90;;;10.70;70.32;96918.22;5207823;28;20233;-63
2021/05/16 00:35:34;;;;;;;2.87;1.90;;;9.90;99.90;;;10.63;70.87;96916.19;5209627;28;20313;-64
2021/05/16 00:38:06;;;;;;;2.70;2.20;;;9.80;99.90;;;10.52;70.82;96927.66;5228059;28;20289;-64
2021/05/16 00:40:40;;;;;;;2.77;2.57;;;9.70;99.90;;;10.53;71.26;96919.16;5219325;28;20197;-64
2021/05/16 00:43:12;;;;;;;2.30;1.90;;;9.70;99.90;;;10.53;72.24;96927.72;5211616;28;20306;-63
2021/05/16 00:45:47;;;;;;;1.93;1.80;;;9.70;99.90;;;10.56;72.65;96934.66;5207415;28;20568;-64
2021/05/16 00:48:21;;;;;;;2.23;2.00;;;9.80;99.90;;;10.55;72.09;96932.88;5220062;28;20200;-64
2021/05/16 00:50:53;;;;;;;2.10;2.00;;;9.70;99.90;;;10.52;71.94;96927.66;5225841;28;20228;-64
2021/05/16 00:53:26;;;;;;;2.77;2.13;;;9.70;99.90;;;10.55;72.01;96930.34;5225189;28;20248;-64
2021/05/16 00:56:01;;;;;;;2.20;2.00;;;9.70;99.90;;;10.50;73.10;96924.16;5223899;28;20649;-62
2021/05/16 00:58:34;;;;;;;2.33;2.13;;;9.60;99.90;;;10.43;72.50;96924.72;5216383;28;20208;-64
2021/05/16 01:05:19;;;;;;;2.67;2.30;;;9.60;99.90;;;10.48;73.28;96919.00;5226108;28;20252;-62
2021/05/16 01:07:52;;;;;;;2.33;1.97;;;9.60;99.90;;;10.55;72.66;96922.66;5224238;28;20564;-63
2021/05/16 01:10:25;;;;;;;2.40;2.30;;;9.60;99.90;;;10.42;72.74;96908.53;5226145;28;20197;-62
2021/05/16 01:12:58;;;;;;;2.77;2.03;;;9.60;99.90;;;10.39;73.17;96916.06;5214578;28;20655;-63
2021/05/16 01:15:32;;;;;;;4.03;2.40;;;9.50;99.90;;;10.42;74.43;96915.31;5206888;28;20252;-62
2021/05/16 01:18:05;;;;;;;2.40;2.20;;;9.60;99.90;;;10.41;76.31;96908.44;5214543;28;20189;-63
2021/05/16 01:20:42;;;;;;;2.17;2.00;;;9.70;99.90;;;10.40;77.24;96914.38;5225998;28;20284;-63
2021/05/16 01:23:20;;;;;;;2.13;1.93;;;9.70;99.90;;;10.40;78.04;96899.91;5208710;28;20546;-63
2021/05/16 01:25:53;;;;;;;2.70;2.30;;;9.80;99.90;;;10.40;76.79;96902.47;5207920;28;20284;-63
2021/05/16 01:28:26;;;;;;;2.67;2.23;;;9.70;99.90;;;10.29;76.56;96904.56;5217023;28;20240;-64
2021/05/16 01:30:58;;;;;;;2.13;1.97;;;9.60;99.90;;;10.27;78.60;96911.31;5209353;28;20197;-62
2021/05/16 01:33:32;;;;;;;3.57;2.30;;;9.60;99.90;;;10.23;79.62;96901.72;5226432;28;20197;-65
2021/05/16 01:36:06;;;;;;;3.17;2.37;;;9.60;99.90;;;10.11;80.49;96899.50;5212272;28;20218;-65
2021/05/16 01:38:39;;;;;;;2.03;1.90;;;9.60;99.90;;;10.05;81.38;96906.03;5223598;28;20588;-64
2021/05/16 01:41:11;;;;;;;2.30;2.00;;;9.50;99.90;;;10.06;83.22;96900.13;5207965;28;20289;-64
2021/05/16 01:43:44;;;;;;;2.67;2.47;;;9.50;99.90;;;10.04;84.19;96904.28;5210475;28;20200;-64
2021/05/16 01:46:33;;;;;;;2.63;2.43;;;9.50;99.90;;;9.93;83.44;96906.38;5210144;28;20232;-64
2021/05/16 01:49:06;;;;;;;3.53;2.10;;;9.30;99.90;;;9.95;84.38;96912.41;5217902;28;20590;-65
2021/05/16 01:51:38;;;;;;;2.63;2.43;;;9.40;99.90;;;10.05;86.26;96908.59;5224953;28;20217;-64
2021/05/16 01:54:12;;;;;;;3.03;2.37;;;9.50;99.90;;;10.07;86.67;96912.06;5213209;28;20236;-64
2021/05/16 01:56:45;;;;;;;2.70;2.50;;;9.50;99.90;;;10.10;86.36;96918.22;5221865;28;20681;-63
2021/05/16 02:00:13;;;;;;;2.97;2.67;;;9.50;99.90;;;10.08;86.37;96916.38;5216837;28;20215;-65
2021/05/16 02:02:46;;;;;;;4.00;2.50;;;9.50;99.90;;;9.95;86.00;96914.09;5214871;28;20224;-64
2021/05/16 02:05:19;;;;;;;2.90;2.43;;;9.40;99.90;;;9.99;86.26;96916.00;5214312;28;20201;-64
2021/05/16 02:07:53;;;;;;;3.80;2.60;;;9.40;99.90;;;9.97;85.89;96913.34;5214887;28;20660;-64
2021/05/16 02:10:26;;;;;;;2.77;2.50;;;9.30;99.90;;;10.00;87.07;96915.19;5223235;28;20194;-64
2021/05/16 02:13:00;;;;;;;2.47;2.27;;;9.40;99.90;;;9.98;87.70;96910.00;5223758;28;20304;-64
2021/05/16 02:15:34;;;;;;;2.53;2.33;;;9.30;99.90;;;10.03;87.54;96907.66;5217952;28;20255;-62
2021/05/16 02:18:08;;;;;;;2.37;2.10;;;9.40;99.90;;;9.99;87.19;96903.22;5223168;28;20284;-64
2021/05/16 02:20:41;;;;;;;4.10;2.27;;;9.30;99.90;;;9.99;86.62;96900.69;5215069;28;20202;-64
2021/05/16 02:23:14;;;;;;;2.43;2.10;;;9.30;99.90;;;9.94;86.93;96895.34;5208479;28;20634;-64
2021/05/16 02:25:50;;;;;;;2.80;2.40;;;9.20;99.90;;;9.87;86.34;96901.88;5224671;28;20204;-64
2021/05/16 02:28:23;;;;;;;3.00;2.70;;;9.10;99.90;;;9.80;86.27;96901.53;5214114;28;20211;-61
2021/05/16 02:30:55;;;;;;;3.20;2.33;;;9.10;99.90;;;9.89;87.47;96899.38;5226157;28;20194;-61
2021/05/16 02:33:28;;;;;;;4.20;2.53;;;9.10;99.90;;;9.90;87.66;96894.34;5226167;28;20216;-64
2021/05/16 02:36:00;;;;;;;3.30;2.70;;;9.20;99.90;;;9.91;88.35;96896.09;5215663;28;20222;-64
2021/05/16 02:38:33;;;;;;;4.27;2.67;;;9.20;99.90;;;9.99;88.57;96904.09;5205581;28;20194;-63
2021/05/16 02:41:06;;;;;;;3.20;2.90;;;9.30;99.90;;;10.01;88.36;96901.59;5205663;28;20725;-64
2021/05/16 02:43:39;;;;;;;2.70;2.50;;;9.30;99.90;;;10.00;88.05;96894.75;5206858;28;20289;-64
2021/05/16 02:46:12;;;;;;;3.20;2.90;;;9.30;99.90;;;10.01;86.50;96893.94;5212121;28;20281;-64
2021/05/16 02:48:44;;;;;;;3.50;2.77;;;9.20;99.90;;;9.95;87.50;96899.66;5210256;28;20281;-64
2021/05/16 02:51:17;;;;;;;2.70;2.50;;;9.30;99.90;;;9.92;88.07;96895.28;5213583;28;20271;-62
2021/05/16 02:53:50;;;;;;;2.20;2.10;;;9.30;99.90;;;9.79;87.45;96890.47;5225459;28;20243;-63
2021/05/16 02:56:24;;;;;;;2.50;2.30;;;9.10;99.90;;;9.77;89.01;96896.28;5205987;28;20316;-63
2021/05/16 02:58:56;;;;;;;3.47;2.60;;;9.10;99.90;;;9.77;90.24;96899.72;5223799;28;20198;-65
2021/05/16 03:01:29;;;;;;;5.03;2.57;;;9.20;99.90;;;9.76;89.38;96900.53;5213589;28;20661;-65
2021/05/16 03:04:02;;;;;;;2.60;2.50;;;9.20;99.90;;;9.70;88.67;96895.16;5225060;28;20583;-64
2021/05/16 03:06:35;;;;;;;2.83;2.60;;;9.00;99.90;;;9.61;88.36;96892.19;5210511;28;20193;-62
2021/05/16 03:09:07;;;;;;;2.13;2.00;;;9.00;99.90;;;9.66;88.68;96895.81;5208615;28;20288;-64
2021/05/16 03:11:41;;;;;;;2.50;2.07;;;9.00;99.90;;;9.68;90.17;96897.63;5217050;28;20304;-64
2021/05/16 03:14:13;;;;;;;2.37;2.17;;;9.10;99.90;;;9.74;90.24;96897.03;5209857;28;20331;-64
2021/05/16 03:16:46;;;;;;;3.33;2.77;;;9.10;99.90;;;9.81;90.35;96895.63;5217675;28;20221;-64
2021/05/16 03:19:19;;;;;;;3.00;2.80;;;9.20;99.90;;;9.89;90.90;96897.69;5216426;28;20297;-64
2021/05/16 03:21:51;;;;;;;2.90;2.70;;;9.30;99.90;;;9.93;91.53;96906.38;5205608;28;20336;-63
2021/05/16 03:24:24;;;;;;;3.87;2.43;;;9.30;99.90;;;9.93;92.18;96902.16;5217663;28;20288;-63
2021/05/16 03:26:57;;;;;;;4.23;2.60;;;9.40;99.90;;;9.99;92.43;96899.00;5218928;28;20582;-63
2021/05/16 03:29:31;;;;;;;3.10;2.67;;;9.40;99.90;;;9.93;92.07;96894.50;5209243;28;20300;-63
2021/05/16 03:32:05;;;;;;;3.23;2.70;;;9.30;99.90;;;9.91;92.31;96896.09;5205130;28;20701;-61
2021/05/16 03:34:38;;;;;;;2.87;2.67;;;9.30;99.90;;;9.91;92.14;96890.13;5205454;28;20202;-63
2021/05/16 03:37:10;;;;;;;2.97;2.70;;;9.30;99.90;;;9.85;91.62;96895.84;5205711;28;20313;-63
2021/05/16 03:39:43;;;;;;;3.67;2.80;;;9.20;99.90;;;9.84;91.81;96896.66;5212312;28;20292;-63
2021/05/16 03:42:17;;;;;;;3.37;2.90;;;9.20;99.90;;;9.83;92.13;96897.44;5225680;28;20664;-63
2021/05/16 03:44:49;;;;;;;2.77;2.57;;;9.20;99.90;;;9.80;92.75;96887.09;5213447;28;20194;-63
2021/05/16 03:47:22;;;;;;;2.77;2.57;;;9.20;99.90;;;9.83;92.47;96887.22;5224029;28;20196;-63
2021/05/16 03:49:55;;;;;;;3.60;2.63;;;9.20;99.90;;;9.85;93.45;96885.63;5209398;28;20296;-63
2021/05/16 03:52:27;;;;;;;3.07;2.63;;;9.20;99.90;;;9.86;93.56;96895.00;5207382;28;20308;-64
2021/05/16 03:55:00;;;;;;;3.37;3.07;;;9.20;99.90;;;9.88;93.59;96890.00;5214209;28;20285;-64
2021/05/16 03:57:34;;;;;;;3.87;2.80;;;9.20;99.90;;;9.85;92.68;96888.19;5220297;28;20312;-61
2021/05/16 04:00:09;;;;;;;3.57;2.60;;;9.20;99.90;;;9.85;93.64;96900.06;5212449;28;20292;-62
2021/05/16 04:02:42;;;;;;;2.77;2.50;;;9.20;99.90;;;9.85;93.05;96893.28;5219375;28;20217;-61
2021/05/16 04:05:15;;;;;;;3.10;2.53;;;9.20;99.90;;;9.84;94.07;96898.28;5226967;28;20288;-64
2021/05/16 04:07:49;;;;;;;2.90;2.70;;;9.20;99.90;;;9.82;93.61;96900.81;5225668;28;20289;-61
2021/05/16 04:10:21;;;;;;;3.03;2.70;;;9.20;99.90;;;9.80;93.14;96902.41;5227289;28;20232;-62
2021/05/16 04:12:55;;;;;;;2.67;2.47;;;9.10;99.90;;;9.82;93.55;96898.25;5224222;28;20299;-61
2021/05/16 04:15:28;;;;;;;2.70;2.50;;;9.20;99.90;;;9.88;93.70;96900.19;5221729;28;20207;-61
2021/05/16 04:18:00;;;;;;;2.80;2.60;;;9.20;99.90;;;9.88;94.70;96895.97;5215321;28;20669;-62
2021/05/16 04:20:33;;;;;;;2.87;2.67;;;9.30;99.90;;;9.90;94.79;96902.03;5218450;28;20293;-62
2021/05/16 04:23:05;;;;;;;3.53;2.77;;;9.30;99.90;;;9.86;95.38;96904.34;5208461;28;20229;-62
2021/05/16 04:25:38;;;;;;;3.20;2.70;;;9.30;99.90;;;9.88;94.53;96901.06;5209430;28;20204;-62
2021/05/16 04:28:11;;;;;;;4.00;2.70;;;9.30;99.90;;;9.87;94.03;96901.88;5211394;28;20229;-62
2021/05/16 04:30:44;;;;;;;3.77;3.03;;;9.20;99.90;;;9.79;93.85;96902.34;5215572;28;20229;-62
2021/05/16 04:33:17;;;;;;;4.40;2.80;;;9.20;99.90;;;9.78;94.34;96904.00;5207636;28;20233;-62
2021/05/16 04:35:49;;;;;;;3.37;3.00;;;9.20;99.90;;;9.87;94.71;96913.75;5220166;28;20285;-62
2021/05/16 04:38:22;;;;;;;3.50;3.20;;;9.20;99.90;;;9.85;94.05;96911.16;5210310;28;20285;-62
2021/05/16 04:40:55;;;;;;;3.60;2.77;;;9.20;99.90;;;9.87;94.63;96913.75;5222066;28;20204;-62
2021/05/16 04:43:28;;;;;;;3.33;2.90;;;9.10;99.90;;;9.96;95.60;96913.28;5228578;28;20704;-65
2021/05/16 04:46:01;;;;;;;3.97;3.57;;;9.30;99.90;;;9.98;95.58;96916.78;5219279;28;20276;-62
2021/05/16 04:52:24;;;;;;;3.53;3.00;;;9.40;99.90;;;9.99;95.83;96914.31;5225179;28;20328;-61
2021/05/16 04:54:56;;;;;;;3.27;2.73;;;9.40;99.90;;;9.93;95.05;96914.91;5223848;28;20193;-61
2021/05/16 04:57:29;;;;;;;3.17;2.80;;;9.30;99.90;;;9.96;94.99;96920.94;5218176;28;20712;-61
2021/05/16 05:00:05;;;;;;;3.50;3.20;;;9.30;99.90;;;9.91;95.44;96926.72;5221143;28;20205;-63
2021/05/16 05:02:41;;;;;;;5.23;2.87;;;9.30;99.90;;;9.92;95.54;96930.16;5207016;28;20217;-61
2021/05/16 05:05:14;;;;;;;3.50;3.20;;;9.20;99.90;;;9.86;94.94;96927.31;5217107;28;20201;-61
2021/05/16 05:07:47;;;;;;;3.93;3.50;;;9.20;99.90;;;9.89;95.87;96920.66;5207698;28;20308;-63
2021/05/16 05:10:19;;;;;;;3.73;3.30;;;9.20;99.90;;;9.93;95.12;96924.25;5209131;28;20194;-64
2021/05/16 05:12:52;;;;;;;4.27;3.57;;;9.20;99.90;;;9.98;96.03;96916.78;5210916;28;20279;-61
2021/05/16 05:15:26;;;;;;;4.10;3.23;;;9.30;99.90;;;10.02;95.83;96914.44;5225163;28;20279;-64
2021/05/16 05:17:58;;;;;;;3.30;3.00;;;9.30;99.90;;;9.97;96.08;96909.94;5207329;28;20245;-65
2021/05/16 05:20:31;;;;;;;5.60;3.70;;;9.30;99.90;;;10.15;96.19;96918.38;5208280;28;20729;-65
2021/05/16 05:23:04;;;;;;;6.37;4.60;;;9.40;99.90;;;10.17;95.68;96909.13;5227705;28;20217;-65
2021/05/16 05:25:36;;;;;;;4.90;4.33;;;9.50;99.90;;;10.28;96.64;96907.94;5215188;28;20292;-63
2021/05/16 05:28:09;;;;;;;3.73;3.43;;;9.60;99.90;;;10.52;96.10;96910.63;5215306;28;20280;-64
2021/05/16 05:30:42;;;;;;;3.27;3.07;;;9.70;99.90;;;10.38;96.00;96907.50;5217969;28;20662;-65
2021/05/16 05:33:15;;;;;;;3.87;2.77;;;9.70;99.90;;;10.33;96.43;96905.56;5206739;28;20260;-64
2021/05/16 05:35:48;;;;;;;4.33;2.83;;;9.60;99.90;;;10.36;97.08;96906.59;5206486;28;20198;-64
2021/05/16 05:38:20;;;;;;;3.70;3.40;;;9.70;99.90;;;10.33;95.52;96903.00;5206863;28;20204;-63
2021/05/16 05:40:53;;;;;;;3.13;2.90;;;9.70;99.90;;;10.37;96.30;96910.00;5207942;28;20646;-65
2021/05/16 05:43:26;;;;;;;3.43;3.13;;;9.70;99.90;;;10.38;95.57;96904.94;5214689;28;20217;-64
2021/05/16 05:45:59;;;;;;;3.87;3.23;;;9.60;99.90;;;10.38;95.41;96912.59;5215817;28;20715;-65
2021/05/16 05:48:32;;;;;;;4.07;3.20;;;9.70;99.90;;;10.43;96.06;96910.25;5226198;28;20420;-63
2021/05/16 05:51:05;;;;;;;3.57;3.27;;;9.80;99.90;;;10.54;95.98;96910.72;5227398;28;20201;-63
2021/05/16 05:53:40;;;;;;;4.27;2.70;;;9.80;99.90;;;10.55;95.60;96904.78;5216608;28;20200;-63
2021/05/16 05:56:12;;;;;;;4.07;3.13;;;9.80;99.90;;;10.65;95.73;96909.47;5222008;28;20193;-65
2021/05/16 05:58:45;;;;;;;4.07;2.97;;;9.90;99.90;;;10.86;97.19;96908.59;5206003;28;20193;-65
2021/05/16 06:01:19;;;;;;;4.60;3.10;;;10.10;99.90;;;11.05;95.71;96911.09;5212433;28;20231;-66
2021/05/16 06:03:51;;;;;;;5.00;2.97;;;10.40;99.90;;;11.33;96.33;96914.72;5218134;28;20296;-65
2021/05/16 06:06:24;;;;;;;3.90;2.63;;;10.60;99.90;;;11.78;96.94;96912.16;5223536;28;20189;-65
2021/05/16 06:08:56;;;;;;;2.97;2.50;;;11.00;99.90;;;12.13;93.78;96911.78;5213874;28;20319;-66
2021/05/16 06:11:29;;;;;;;2.90;2.20;;;11.30;99.90;;;12.24;91.71;96909.56;5204037;28;20631;-65
2021/05/16 06:14:02;;;;;;;2.42;2.20;;;11.40;99.90;;;12.21;89.49;96914.59;5204816;28;20669;-65
2021/05/16 06:16:36;;;;;;;3.35;2.40;;;11.30;99.90;;;12.26;92.11;96912.22;5211684;28;20213;-64
2021/05/16 06:19:08;;;;;;;4.65;2.50;;;11.30;99.90;;;12.20;92.43;96923.09;5213379;28;20675;-64
2021/05/16 06:21:41;;;;;;;3.55;2.55;;;11.20;99.90;;;12.13;93.12;96927.16;5210942;28;20217;-64
2021/05/16 06:24:14;;;;;;;2.65;2.20;;;11.20;99.90;;;12.14;90.44;96928.88;5217639;28;20288;-63
2021/05/16 06:26:46;;;;;;;2.63;2.42;;;11.20;99.90;;;11.90;91.76;96922.88;5219531;28;20301;-64
2021/05/16 06:29:19;;;;;;;2.72;2.40;;;11.10;99.90;;;11.76;91.76;96922.34;5208930;28;20202;-65
2021/05/16 06:31:52;;;;;;;2.20;2.10;;;10.90;99.90;;;11.76;91.78;96927.47;5211106;28;20220;-65
2021/05/16 06:34:25;;;;;;;2.25;2.15;;;10.90;99.90;;;11.66;93.23;96922.81;5224749;28;20708;-63
2021/05/16 06:36:58;;;;;;;2.65;2.10;;;10.90;99.90;;;11.65;93.90;96934.75;5216136;28;20308;-63
2021/05/16 06:39:30;;;;;;;2.28;2.08;;;11.00;99.90;;;11.66;94.65;96938.16;5216254;28;20197;-64
2021/05/16 06:42:03;;;;;;;2.28;2.13;;;10.90;99.90;;;11.66;94.16;96933.03;5223542;28;20531;-64
2021/05/16 06:44:36;;;;;;;2.20;2.10;;;10.90;99.90;;;11.67;95.18;96930.53;5216077;28;20193;-64
2021/05/16 06:47:09;;;;;;;2.85;2.28;;;11.00;99.90;;;11.75;94.04;96935.94;5213232;28;20190;-61
2021/05/16 06:49:42;;;;;;;2.28;1.73;;;11.00;99.90;;;12.03;95.20;96940.44;5214372;28;20284;-65
2021/05/16 06:52:15;;;;;;;2.90;2.00;;;11.30;99.90;;;12.33;95.53;96924.41;5224239;28;20308;-64
2021/05/16 06:54:48;;;;;;;2.10;1.83;;;11.50;99.90;;;12.52;94.30;96915.66;5218733;28;20224;-64
2021/05/16 06:57:21;;;;;;;1.95;1.70;;;11.70;99.90;;;12.77;90.08;96912.25;5204408;28;20221;-64
2021/05/16 06:59:53;;;;;;;2.50;1.80;;;11.90;99.90;;;13.13;87.06;96921.94;5204782;28;20201;-63
2021/05/16 07:02:27;;;;;;;1.98;1.52;;;12.30;99.90;;;13.45;88.23;96920.44;5211227;28;20228;-64
2021/05/16 07:05:00;;;;;;;1.50;1.40;;;12.50;99.90;;;13.82;86.20;96912.13;5220118;28;20653;-65
2021/05/16 07:07:33;;;;;;;2.40;1.45;;;12.90;99.90;;;14.03;82.31;96911.84;5207586;28;20200;-65
2021/05/16 07:10:07;;;;;;;2.10;1.80;;;13.00;99.90;;;14.10;82.61;96913.75;5216383;28;20190;-66
2021/05/16 07:12:40;;;;;;;3.20;1.90;;;13.10;99.90;;;14.16;80.97;96913.03;5220594;28;20307;-65
2021/05/16 07:15:13;;;;;;;2.28;1.40;;;13.10;99.90;;;14.22;78.50;96918.34;5218044;28;20197;-65
2021/05/16 07:17:48;;;;;;;2.08;1.67;;;13.10;99.90;;;14.20;76.20;96914.88;5210976;28;20309;-65
2021/05/16 07:20:21;;;;;;;1.73;1.35;;;13.20;99.90;;;14.22;75.65;96913.22;5209535;28;20292;-65
2021/05/16 07:22:54;;;;;;;2.17;1.70;;;13.20;99.90;;;14.28;75.36;96908.25;5207539;28;20300;-66
2021/05/16 07:25:26;;;;;;;1.55;1.40;;;13.30;99.90;;;14.47;75.85;96911.31;5208881;28;20265;-66
2021/05/16 07:27:59;;;;;;;1.45;1.10;;;13.50;99.90;;;15.10;74.90;96908.66;5210358;28;20194;-63
2021/05/16 07:30:32;;;;;;;2.30;1.27;;;14.10;99.90;;;15.26;70.71;96915.91;5221668;28;20240;-66
2021/05/16 07:33:05;;;;;;;2.22;1.45;;;14.30;99.90;;;15.38;71.06;96914.44;5222405;28;20791;-66
2021/05/16 07:35:38;;;;;;;2.25;1.50;;;14.40;99.90;;;15.68;66.42;96917.75;5226922;28;20634;-65
2021/05/16 07:38:11;;;;;;;1.65;1.50;;;14.60;99.90;;;15.86;68.05;96908.66;5218356;28;20218;-65
2021/05/16 07:40:43;;;;;;;1.83;1.23;;;14.60;99.90;;;15.95;65.71;96919.16;5223546;28;20216;-66
2021/05/16 07:43:16;;;;;;;2.17;1.30;;;14.90;99.90;;;16.05;66.80;96913.34;5229335;28;20311;-64
2021/05/16 07:45:49;;;;;;;3.15;1.60;;;14.90;99.90;;;16.02;65.23;96910.69;5212778;28;20640;-66
2021/05/16 07:48:28;;;;;;;2.10;1.50;;;14.80;99.90;;;16.04;66.06;96903.88;5217532;28;20276;-65
2021/05/16 07:51:02;;;;;;;2.33;1.35;;;14.80;99.90;;;16.53;63.83;96891.06;5215048;28;20217;-64
2021/05/16 07:53:35;;;;;;;1.58;1.40;;;15.40;99.90;;;16.50;64.29;96891.84;5229282;28;20307;-66
2021/05/16 07:56:10;;;;;;;2.85;1.30;;;15.40;99.90;;;16.36;62.41;96896.75;5224459;28;20296;-65
2021/05/16 07:58:42;;;;;;;1.33;1.23;;;15.20;99.90;;;16.16;61.18;96892.94;5225415;28;20217;-65
2021/05/16 08:01:15;;;;;;;2.20;1.58;;;15.00;99.90;;;15.89;62.32;96912.16;5208738;28;20198;-64
2021/05/16 08:03:48;;;;;;;3.20;1.45;;;14.80;99.90;;;15.76;62.89;96899.84;5213949;28;20617;-64
2021/05/16 08:06:21;;;;;;;1.13;1.02;;;14.80;99.90;;;15.74;62.09;96912.72;5211657;28;20657;-64
2021/05/16 08:08:54;;;;;;;2.38;1.13;;;14.80;99.90;;;15.71;61.68;96901.50;5218369;28;20602;-66
2021/05/16 08:11:26;;;;;;;1.45;1.20;;;14.80;99.90;;;15.60;61.96;96900.34;5219176;28;20213;-65
2021/05/16 08:13:59;;;;;;;2.15;1.23;;;14.70;99.90;;;15.61;60.94;96902.09;5227077;28;20251;-64
2021/05/16 08:16:33;;;;;;;2.65;1.40;;;14.70;99.90;;;15.45;62.87;96904.31;5220990;28;20292;-65
2021/05/16 08:19:07;;;;;;;2.10;1.40;;;14.50;99.90;;;15.57;62.19;96905.41;5217692;28;20316;-64
2021/05/16 08:21:39;;;;;;;2.17;1.58;;;14.50;99.90;;;15.80;60.89;96898.25;5220131;28;20332;-64
2021/05/16 08:24:14;;;;;;;2.00;1.30;;;14.90;99.90;;;16.01;61.18;96890.94;5219953;28;20681;-65
2021/05/16 08:26:46;;;;;;;3.00;1.42;;;15.20;99.90;;;16.18;59.88;96897.28;5227922;28;20197;-65
2021/05/16 08:29:19;;;;;;;3.42;1.58;;;15.30;99.90;;;16.40;59.30;96897.72;5225208;28;20672;-64
2021/05/16 08:31:51;;;;;;;1.45;1.35;;;15.30;99.90;;;16.65;57.14;96893.84;5219235;28;20748;-64
2021/05/16 08:34:25;;;;;;;2.00;1.40;;;15.50;99.90;;;16.83;56.85;96893.34;5218295;28;20695;-65
2021/05/16 08:36:58;;;;;;;2.05;1.70;;;16.10;99.90;;;17.19;56.02;96887.03;5222989;28;20291;-64
2021/05/16 08:39:31;;;;;;;2.05;1.33;;;16.60;99.90;;;17.34;55.22;96880.38;5227199;28;20204;-65
2021/05/16 08:42:04;;;;;;;1.90;1.40;;;16.60;99.90;;;17.59;55.33;96877.25;5218423;28;20214;-65
2021/05/16 08:44:37;;;;;;;1.60;1.50;;;16.70;99.90;;;17.69;54.51;96884.31;5224317;28;20205;-63
2021/05/16 08:47:10;;;;;;;2.65;1.70;;;16.80;99.90;;;17.60;55.36;96889.31;5227367;28;20300;-63
2021/05/16 08:49:43;;;;;;;1.35;1.17;;;16.50;99.90;;;17.47;55.10;96886.56;5226326;28;20607;-62
2021/05/16 08:52:16;;;;;;;1.83;1.60;;;16.30;99.90;;;17.29;57.07;96896.66;5221926;28;20304;-64
2021/05/16 08:54:53;;;;;;;3.45;1.80;;;16.00;99.90;;;16.84;60.08;96911.41;5223575;28;20293;-64
2021/05/16 08:57:34;;;;;;;4.95;2.00;;;15.80;99.90;;;16.06;61.52;96904.78;5225786;28;20316;-65
2021/05/16 09:00:12;;;;;;;2.17;1.60;;;15.10;99.90;;;15.45;65.31;96906.00;5217302;28;20194;-67
2021/05/16 09:03:09;;;;;;;3.05;1.70;;;14.40;99.90;;;15.01;68.25;96913.56;5207934;28;20299;-67
2021/05/16 09:05:45;;;;;;;3.83;2.10;;;13.90;99.90;;;14.95;70.69;96923.72;5212177;28;20204;-67
2021/05/16 09:08:22;;;;;;;2.65;2.20;;;13.90;99.90;;;15.13;72.56;96924.16;5210227;28;20190;-64
2021/05/16 09:10:58;;;;;;;3.53;1.80;;;14.10;99.90;;;15.42;70.74;96906.81;5210938;28;20571;-67
2021/05/16 09:13:33;;;;;;;2.67;1.77;;;14.40;99.90;;;15.49;73.24;96905.25;5208663;28;20229;-67
2021/05/16 09:16:11;;;;;;;3.35;1.92;;;14.80;99.90;;;16.06;69.36;96902.22;5207705;28;20250;-64
2021/05/16 09:18:46;;;;;;;1.77;1.63;;;15.00;99.90;;;16.44;65.78;96889.19;5224080;28;20708;-66
2021/05/16 09:21:31;;;;;;;2.40;1.50;;;15.50;99.90;;;16.89;66.39;96888.28;5225034;28;20262;-66
2021/05/16 09:24:10;;;;;;;1.73;1.63;;;16.00;99.90;;;17.20;62.19;96893.94;5222191;28;20202;-66
2021/05/16 09:26:56;;;;;;;1.65;1.55;;;16.40;99.90;;;17.41;60.48;96889.06;5221727;28;20233;-66
2021/05/16 09:29:33;;;;;;;1.67;1.50;;;16.70;99.90;;;17.43;63.27;96881.38;5217989;28;20201;-66
2021/05/16 09:32:07;;;;;;;2.88;1.60;;;16.80;99.90;;;17.51;59.24;96884.91;5223675;28;20263;-66
2021/05/16 09:34:41;;;;;;;2.55;1.88;;;16.50;99.90;;;17.51;60.36;96878.03;5225894;28;20299;-66
2021/05/16 09:37:14;;;;;;;3.17;1.52;;;16.60;99.90;;;17.43;57.22;96871.03;5226450;28;20300;-66
2021/05/16 09:39:47;;;;;;;2.85;1.50;;;16.40;99.90;;;17.41;60.05;96873.59;5215475;28;20224;-65
2021/05/16 09:42:19;;;;;;;3.10;1.45;;;16.20;99.90;;;17.25;60.24;96871.59;5241734;28;20303;-61
2021/05/16 09:44:54;;;;;;;2.75;1.80;;;16.00;99.90;;;17.10;58.22;96865.38;5227840;28;20586;-62
2021/05/16 09:47:28;;;;;;;3.83;1.70;;;15.90;99.90;;;17.21;59.20;96860.38;5224595;28;20294;-64
2021/05/16 09:50:02;;;;;;;3.17;1.73;;;15.90;99.90;;;17.48;56.79;96866.78;5214776;28;20233;-62
2021/05/16 09:52:36;;;;;;;4.28;2.03;;;16.00;99.90;;;17.55;58.61;96863.44;5214368;28;20222;-64
2021/05/16 09:55:11;;;;;;;3.20;1.60;;;16.10;99.90;;;17.63;59.38;96859.25;5218776;28;20736;-63
2021/05/16 09:57:46;;;;;;;3.78;1.90;;;16.50;99.90;;;17.92;57.75;96853.59;5225325;28;20235;-64
2021/05/16 10:00:21;;;;;;;2.60;1.75;;;16.70;99.90;;;18.02;57.51;96847.69;5209920;28;20196;-63
2021/05/16 10:02:53;;;;;;;2.13;1.63;;;16.80;99.90;;;18.06;55.60;96853.78;5218355;28;20308;-64
2021/05/16 10:05:26;;;;;;;2.28;1.90;;;16.70;99.90;;;17.90;57.24;96848.41;5217268;28;20201;-64
2021/05/16 10:08:00;;;;;;;3.47;1.65;;;16.70;99.90;;;17.53;56.09;96842.72;5207239;28;20229;-64
2021/05/16 10:10:39;;;;;;;3.67;1.50;;;16.40;99.90;;;17.60;56.61;96845.41;5325295;27;21066;-65
2021/05/16 10:13:12;;;;;;;2.47;1.90;;;16.30;99.90;;;17.56;56.95;96850.53;5320346;27;20305;-64
2021/05/16 10:15:46;;;;;;;3.38;2.00;;;16.20;99.90;;;17.65;57.48;96847.19;5291586;27;20226;-64
2021/05/16 10:18:19;;;;;;;4.20;2.15;;;16.20;99.90;;;17.40;59.64;96839.97;5288627;28;20651;-65
2021/05/16 10:20:52;;;;;;;3.13;1.90;;;16.00;99.90;;;17.21;60.76;96836.25;5299447;28;20194;-65
2021/05/16 10:23:31;;;;;;;2.78;1.90;;;15.80;99.90;;;17.14;61.78;96834.44;5288863;27;20215;-64
2021/05/16 10:26:23;;;;;;;3.83;1.70;;;15.80;99.90;;;17.25;62.11;96825.97;5289101;27;20195;-64
2021/05/16 10:29:03;;;;;;;2.53;1.70;;;16.10;99.90;;;17.48;59.83;96817.69;5283369;27;20219;-65
2021/05/16 10:31:52;;;;;;;3.10;1.90;;;16.60;99.90;;;17.61;58.69;96800.63;5286622;28;20225;-64
2021/05/16 10:34:42;;;;;;;2.28;1.67;;;16.70;99.90;;;17.79;58.43;96804.31;5301903;28;20217;-62
2021/05/16 10:37:39;;;;;;;5.07;1.70;;;16.80;99.90;;;17.92;56.00;96801.91;5289789;28;20218;-64
2021/05/16 10:40:32;;;;;;;3.22;1.73;;;17.10;99.90;;;18.09;53.68;96796.91;5293775;27;20273;-63
2021/05/16 10:43:25;;;;;;;2.70;1.58;;;17.20;99.90;;;18.17;51.25;96792.66;5305054;27;20221;-64
2021/05/16 10:45:57;;;;;;;4.85;1.90;;;17.20;99.90;;;18.26;50.02;96787.59;5293748;28;20209;-65
2021/05/16 10:48:33;;;;;;;2.85;1.60;;;17.30;99.50;;;18.41;48.24;96774.78;5291185;28;20199;-63
2021/05/16 10:51:06;;;;;;;4.07;1.77;;;17.40;98.30;;;18.69;46.99;96775.03;5288011;28;20572;-65
2021/05/16 10:53:43;;;;;;;3.00;1.83;;;17.90;97.00;;;18.86;45.40;96763.09;5297166;28;20239;-65
2021/05/16 10:56:21;;;;;;;3.35;2.10;;;18.00;95.30;;;19.01;43.91;96758.88;5295228;28;20225;-65
2021/05/16 10:58:55;;;;;;;4.20;2.10;;;18.10;94.40;;;19.04;44.60;96758.88;5283801;28;20286;-64
2021/05/16 11:01:37;;;;;;;2.78;1.55;;;18.20;94.30;;;19.24;43.41;96757.28;5290075;28;20214;-65
2021/05/16 11:04:10;;;;;;;2.40;1.38;;;18.40;93.40;;;19.30;43.81;96743.47;5290695;28;20294;-64